Time;durP1;ratioP1;P1;durP2;ratioP2;P2;SDS_P1;SDS_P2;PMS_P1;PMS_P2;Temp;Humidity;BMP_temperature;BMP_pressure;BME280_temperature;BME280_humidity;BME280_pressure;Samples;Min_cycle;Max_cycle;Signal;HPM_P1;HPM_P2
2021/10/16 00:02:08;;;;;;;658.63;32.15;;;;;;;7.28;68.36;100436.56;10390246;28;20417;-62
2021/10/16 00:07:11;;;;;;;240.68;19.20;;;;;;;7.27;68.84;100447.88;10390042;28;20431;-62
2021/10/16 00:12:13;;;;;;;316.15;20.30;;;;;;;7.43;68.71;100455.03;10389874;28;20072;-62
2021/10/16 00:17:14;;;;;;;180.02;18.88;;;;;;;7.49;68.11;100462.59;10390339;28;20738;-62
2021/10/16 00:22:20;;;;;;;191.52;17.85;;;;;;;6.98;68.01;100459.34;10389811;28;20597;-62
2021/10/16 00:27:22;;;;;;;197.15;16.85;;;;;;;6.80;68.41;100466.09;10389885;28;20136;-62
2021/10/16 00:32:23;;;;;;;104.57;12.43;;;;;;;6.85;68.58;100460.72;10387924;28;20429;-62
2021/10/16 00:37:25;;;;;;;110.63;12.30;;;;;;;6.73;68.35;100458.56;10389803;28;20049;-62
2021/10/16 00:42:27;;;;;;;295.17;20.20;;;;;;;6.58;68.75;100459.09;10388698;28;20064;-64
2021/10/16 00:47:28;;;;;;;131.88;13.70;;;;;;;6.75;69.60;100452.41;10389167;28;20729;-62
2021/10/16 00:52:30;;;;;;;207.02;14.50;;;;;;;6.92;68.99;100446.59;10388197;28;20064;-62
2021/10/16 00:57:32;;;;;;;150.20;13.60;;;;;;;6.91;69.11;100447.50;10389813;28;20160;-62
2021/10/16 01:02:34;;;;;;;200.65;17.38;;;;;;;6.90;68.56;100448.38;10387661;28;20071;-62
2021/10/16 01:07:37;;;;;;;177.52;14.15;;;;;;;6.75;68.83;100447.22;10388416;28;20336;-62
2021/10/16 01:12:40;;;;;;;130.75;12.85;;;;;;;6.90;69.29;100445.78;10388413;28;20066;-62
2021/10/16 01:17:50;;;;;;;172.25;13.43;;;;;;;7.16;69.04;100441.31;10388609;28;20041;-62
2021/10/16 01:22:53;;;;;;;114.00;10.95;;;;;;;7.09;69.02;100439.03;10388416;28;20045;-62
2021/10/16 01:27:55;;;;;;;117.82;11.93;;;;;;;7.19;68.91;100437.75;10389468;28;20091;-62
2021/10/16 01:32:57;;;;;;;222.52;15.98;;;;;;;7.30;68.48;100433.00;10388043;28;20448;-62
2021/10/16 01:37:58;;;;;;;81.28;11.15;;;;;;;7.18;68.69;100436.91;10388216;28;20061;-62
2021/10/16 01:43:00;;;;;;;282.67;16.80;;;;;;;7.18;68.57;100436.09;10387523;28;20160;-63
2021/10/16 01:48:02;;;;;;;173.77;15.30;;;;;;;7.04;69.37;100427.97;10388409;28;20059;-62
2021/10/16 01:53:11;;;;;;;215.73;16.33;;;;;;;7.10;69.40;100427.72;10388007;28;20045;-62
2021/10/16 01:58:16;;;;;;;102.32;14.43;;;;;;;7.23;69.14;100428.94;10388319;28;20422;-63
2021/10/16 02:03:17;;;;;;;156.88;16.48;;;;;;;7.34;69.02;100432.00;10392032;28;20042;-62
2021/10/16 02:08:20;;;;;;;144.55;16.10;;;;;;;7.41;68.69;100432.56;10395652;28;20120;-62
2021/10/16 02:13:21;;;;;;;80.18;13.02;;;;;;;7.47;68.54;100433.19;10393839;28;20067;-62
2021/10/16 02:18:23;;;;;;;165.27;15.43;;;;;;;7.57;68.04;100434.53;10394877;28;20089;-62
2021/10/16 02:23:25;;;;;;;56.15;12.38;;;;;;;7.45;67.99;100428.97;10394832;28;20050;-62
2021/10/16 02:28:26;;;;;;;91.43;12.70;;;;;;;7.39;68.53;100435.25;10391650;28;20152;-62
2021/10/16 02:33:28;;;;;;;202.48;15.30;;;;;;;7.28;68.12;100429.63;10391556;28;20156;-62
2021/10/16 02:38:30;;;;;;;650.90;28.70;;;;;;;7.02;68.14;100429.78;10391484;28;20076;-62
2021/10/16 02:43:35;;;;;;;313.00;20.35;;;;;;;6.86;68.72;100420.81;10389959;28;20056;-62
2021/10/16 02:48:36;;;;;;;274.38;15.85;;;;;;;6.73;68.86;100427.38;10392450;28;20061;-62
2021/10/16 02:53:38;;;;;;;292.77;15.85;;;;;;;6.59;69.09;100437.41;10391643;28;20064;-62
2021/10/16 02:58:40;;;;;;;249.82;18.23;;;;;;;6.62;69.31;100439.91;10389684;28;20049;-62
2021/10/16 03:03:41;;;;;;;320.00;18.30;;;;;;;6.88;69.12;100445.84;10388553;28;20832;-62
2021/10/16 03:08:43;;;;;;;373.77;19.30;;;;;;;6.89;68.65;100450.16;10388053;28;20053;-62
2021/10/16 03:13:45;;;;;;;709.80;27.48;;;;;;;6.84;68.54;100448.63;10384287;28;20057;-62
2021/10/16 03:18:48;;;;;;;194.43;12.77;;;;;;;6.70;69.24;100456.06;10385744;28;20041;-62
2021/10/16 03:23:49;;;;;;;220.35;13.68;;;;;;;6.77;68.72;100445.41;10384309;28;20062;-62
2021/10/16 03:28:51;;;;;;;253.45;16.33;;;;;;;6.67;68.88;100459.66;10385807;28;20060;-62
2021/10/16 03:33:53;;;;;;;147.43;12.82;;;;;;;6.56;69.35;100459.16;10383775;28;20611;-62
2021/10/16 03:38:55;;;;;;;268.02;16.15;;;;;;;6.80;69.40;100466.09;10386031;28;20395;-62
2021/10/16 03:43:56;;;;;;;312.25;16.85;;;;;;;6.53;68.94;100476.63;10385659;28;20061;-62
2021/10/16 03:48:58;;;;;;;381.25;17.35;;;;;;;6.46;68.75;100467.31;10385633;28;20053;-62
2021/10/16 03:54:03;;;;;;;362.38;17.80;;;;;;;6.33;68.97;100467.75;10384962;28;20045;-62
2021/10/16 03:59:04;;;;;;;674.67;25.30;;;;;;;6.20;69.11;100468.19;10385728;28;20050;-62
2021/10/16 04:04:06;;;;;;;414.70;16.02;;;;;;;6.14;69.26;100463.19;10385230;28;20053;-62
2021/10/16 04:09:08;;;;;;;322.10;13.77;;;;;;;6.29;69.38;100468.75;10385298;28;20498;-62
2021/10/16 04:14:09;;;;;;;277.95;12.75;;;;;;;6.29;69.10;100460.94;10384433;28;20093;-62
2021/10/16 04:19:11;;;;;;;279.33;14.05;;;;;;;6.15;69.21;100465.72;10384011;28;20049;-62
2021/10/16 04:24:13;;;;;;;392.15;15.77;;;;;;;6.36;69.11;100469.41;10384444;28;20053;-62
2021/10/16 04:29:15;;;;;;;272.08;14.85;;;;;;;6.61;69.16;100459.00;10385339;28;20049;-62
2021/10/16 04:34:16;;;;;;;261.23;13.10;;;;;;;6.72;68.53;100462.06;10384120;28;20053;-62
2021/10/16 04:39:18;;;;;;;473.10;18.02;;;;;;;6.73;68.52;100464.63;10391434;28;20132;-62
2021/10/16 04:44:20;;;;;;;505.52;20.13;;;;;;;6.52;68.46;100472.31;10392658;28;20061;-62
2021/10/16 04:49:22;;;;;;;599.15;19.58;;;;;;;6.43;68.44;100475.25;10392087;28;20049;-62
2021/10/16 04:54:23;;;;;;;624.65;21.65;;;;;;;6.23;68.71;100476.72;10391595;28;20285;-62
2021/10/16 04:59:25;;;;;;;733.80;22.20;;;;;;;6.05;68.35;100466.94;10391514;28;20053;-62
2021/10/16 05:04:27;;;;;;;683.08;25.95;;;;;;;6.02;68.80;100474.81;10391435;28;20147;-62
2021/10/16 05:09:34;;;;;;;527.55;17.52;;;;;;;6.19;68.89;100476.84;10391511;28;20466;-62
2021/10/16 05:14:36;;;;;;;499.15;17.50;;;;;;;6.27;68.61;100478.34;10390561;28;20148;-62
2021/10/16 05:19:38;;;;;;;525.22;22.08;;;;;;;6.09;68.43;100476.31;10390858;28;20045;-63
2021/10/16 05:24:39;;;;;;;392.17;15.20;;;;;;;5.99;68.70;100479.25;10390172;28;20574;-63
2021/10/16 05:29:41;;;;;;;603.55;24.15;;;;;;;6.03;68.56;100479.13;10389116;28;20045;-62
2021/10/16 05:34:43;;;;;;;206.38;11.75;;;;;;;6.07;68.62;100485.06;10389505;28;20547;-63
2021/10/16 05:39:44;;;;;;;122.78;11.40;;;;;;;6.19;68.74;100493.31;10390436;28;20532;-62
2021/10/16 05:44:46;;;;;;;285.25;13.80;;;;;;;6.27;68.38;100483.53;10389746;28;20128;-62
2021/10/16 05:49:47;;;;;;;271.58;14.10;;;;;;;6.39;68.21;100497.84;10388299;28;20055;-63
2021/10/16 05:54:49;;;;;;;426.23;17.60;;;;;;;6.43;67.84;100496.03;10389822;28;20490;-63
2021/10/16 05:59:51;;;;;;;573.15;21.05;;;;;;;6.28;67.99;100500.84;10389435;28;20059;-63
2021/10/16 06:04:53;;;;;;;354.40;15.60;;;;;;;6.42;68.17;100499.50;10389544;28;20056;-63
2021/10/16 06:09:54;;;;;;;291.98;15.15;;;;;;;6.16;68.12;100509.00;10388812;28;20057;-63
2021/10/16 06:14:56;;;;;;;212.75;13.73;;;;;;;6.03;68.69;100512.88;10388874;28;20057;-63
2021/10/16 06:19:58;;;;;;;477.05;17.52;;;;;;;5.87;67.95;100522.03;10388593;28;20132;-63
2021/10/16 06:24:59;;;;;;;409.33;18.33;;;;;;;5.61;68.62;100519.41;10387651;28;20498;-62
2021/10/16 06:30:03;;;;;;;461.70;18.70;;;;;;;5.54;68.69;100525.66;10387885;28;20060;-63
2021/10/16 06:35:05;;;;;;;426.38;15.68;;;;;;;5.49;68.55;100535.34;10388052;28;20136;-62
2021/10/16 06:40:08;;;;;;;241.85;14.77;;;;;;;5.59;69.13;100536.75;10387266;28;20953;-62
2021/10/16 06:45:09;;;;;;;266.23;14.90;;;;;;;5.91;69.05;100539.22;10387908;28;20054;-62
2021/10/16 06:50:11;;;;;;;247.70;14.23;;;;;;;6.19;68.37;100539.19;10387161;28;20049;-63
2021/10/16 06:55:13;;;;;;;304.83;16.65;;;;;;;6.28;68.30;100545.00;10386032;28;20053;-63
2021/10/16 07:00:14;;;;;;;338.05;14.88;;;;;;;6.03;67.75;100548.38;10386540;28;20156;-63
2021/10/16 07:05:16;;;;;;;342.95;15.38;;;;;;;5.81;67.88;100550.78;10387361;28;20049;-63
2021/10/16 07:10:18;;;;;;;384.85;14.75;;;;;;;5.83;68.03;100546.41;10386206;28;20041;-63
2021/10/16 07:15:20;;;;;;;337.23;16.00;;;;;;;5.69;68.42;100558.94;10386470;28;20061;-62
2021/10/16 07:20:21;;;;;;;302.73;13.77;;;;;;;5.76;68.20;100554.44;10386522;28;20045;-63
2021/10/16 07:25:23;;;;;;;284.90;15.57;;;;;;;5.79;68.55;100560.38;10386003;28;20056;-62
2021/10/16 07:30:25;;;;;;;237.55;14.82;;;;;;;6.11;68.37;100568.00;10386453;28;20136;-63
2021/10/16 07:35:27;;;;;;;264.73;15.02;;;;;;;6.12;67.30;100572.28;10385446;28;20059;-62
2021/10/16 07:40:29;;;;;;;151.93;12.32;;;;;;;6.13;67.46;100571.41;10385452;28;20129;-63
2021/10/16 07:45:32;;;;;;;79.60;10.88;;;;;;;6.27;67.30;100574.44;10384778;28;20084;-63
2021/10/16 07:50:35;;;;;;;911.00;28.95;;;;;;;6.12;66.35;100580.06;10382665;28;20076;-63
2021/10/16 07:55:37;;;;;;;151.57;11.55;;;;;;;6.19;66.97;100581.59;10382965;28;20081;-75
2021/10/16 08:00:39;;;;;;;216.73;13.45;;;;;;;6.07;67.15;100576.78;10382413;28;20132;-76
2021/10/16 08:05:41;;;;;;;134.75;10.80;;;;;;;6.17;66.96;100579.94;10383413;28;20057;-74
2021/10/16 08:10:42;;;;;;;455.17;21.95;;;;;;;6.14;66.96;100580.88;10384179;28;20043;-73
2021/10/16 08:15:44;;;;;;;241.43;12.25;;;;;;;6.06;66.45;100582.88;10392276;28;20583;-74
2021/10/16 08:20:46;;;;;;;159.48;11.30;;;;;;;5.81;67.05;100592.31;10388641;28;20055;-74
2021/10/16 08:25:48;;;;;;;156.65;11.43;;;;;;;5.84;67.34;100584.41;10391092;28;20060;-74
2021/10/16 08:30:50;;;;;;;172.65;13.13;;;;;;;6.01;66.90;100587.38;10390862;28;20138;-73
2021/10/16 08:35:52;;;;;;;104.40;10.55;;;;;;;6.18;66.83;100590.31;10391132;28;20049;-74
2021/10/16 08:40:54;;;;;;;319.73;16.88;;;;;;;6.21;66.46;100590.19;10389013;28;20400;-73
2021/10/16 08:46:00;;;;;;;167.93;12.05;;;;;;;6.16;66.99;100589.50;10390539;28;20156;-72
2021/10/16 08:51:02;;;;;;;226.40;14.52;;;;;;;6.43;66.93;100594.75;10390144;28;20395;-73
2021/10/16 08:56:04;;;;;;;350.83;19.15;;;;;;;6.46;66.07;100595.50;10388195;28;20156;-73
2021/10/16 09:01:06;;;;;;;55.83;9.63;;;;;;;6.65;66.52;100587.94;10389981;28;20490;-73
2021/10/16 09:06:14;;;;;;;122.35;13.48;;;;;;;6.71;66.71;100585.13;10389029;28;20387;-73
2021/10/16 09:11:29;;;;;;;76.80;10.50;;;;;;;6.97;65.83;100583.34;10389111;28;20498;-73
2021/10/16 09:16:39;;;;;;;100.03;12.30;;;;;;;7.31;65.69;100585.59;10388363;28;20510;-73
2021/10/16 09:21:56;;;;;;;84.55;12.25;;;;;;;7.48;65.55;100583.25;10388750;28;20072;-74
2021/10/16 09:27:03;;;;;;;186.77;14.25;;;;;;;7.54;64.69;100580.41;10388145;28;20556;-73
2021/10/16 09:32:11;;;;;;;118.30;12.45;;;;;;;7.71;64.82;100582.41;10371065;28;20620;-74
2021/10/16 09:37:20;;;;;;;25.33;10.15;;;;;;;7.92;64.57;100572.00;10389248;28;20140;-73
2021/10/16 09:42:33;;;;;;;44.33;9.70;;;;;;;8.11;63.62;100576.50;10387475;28;20552;-73
2021/10/16 09:47:35;;;;;;;27.58;9.98;;;;;;;8.02;63.99;100568.13;10387447;28;20490;-73
2021/10/16 09:52:39;;;;;;;173.93;17.65;;;;;;;8.07;63.09;100574.91;10388260;28;20654;-74
2021/10/16 09:57:43;;;;;;;116.60;60.60;;;;;;;7.97;63.55;100574.44;10387893;28;20068;-73
2021/10/16 10:02:56;;;;;;;131.18;12.68;;;;;;;7.74;63.36;100570.09;10387528;28;20049;-73
2021/10/16 10:07:58;;;;;;;130.00;16.38;;;;;;;7.52;64.10;100571.81;10387578;28;20055;-74
2021/10/16 10:13:01;;;;;;;34.17;10.93;;;;;;;7.82;64.44;100568.06;10386542;28;20510;-73
2021/10/16 10:23:27;;;;;;;26.05;11.35;;;;;;;8.19;63.30;100569.25;10385109;28;20049;-73
2021/10/16 10:28:52;;;;;;;23.13;10.80;;;;;;;8.35;63.08;100571.19;10386538;28;20157;-74
2021/10/16 10:34:11;;;;;;;30.33;10.70;;;;;;;8.49;62.77;100566.25;10385549;28;20514;-73
2021/10/16 10:39:41;;;;;;;24.80;10.40;;;;;;;8.39;62.17;100561.47;10385831;28;20052;-73
2021/10/16 10:44:45;;;;;;;13.85;10.07;;;;;;;8.31;63.15;100558.31;10383400;28;20825;-72
2021/10/16 10:49:47;;;;;;;47.97;12.40;;;;;;;8.45;62.67;100553.41;10386026;28;20124;-72
2021/10/16 10:55:08;;;;;;;36.88;11.32;;;;;;;8.16;62.49;100551.97;10382756;28;20049;-72
2021/10/16 11:00:14;;;;;;;15.18;10.10;;;;;;;8.70;63.08;100541.03;10385831;28;20049;-72
2021/10/16 11:10:34;;;;;;;14.55;10.05;;;;;;;9.39;61.85;100535.34;10384916;28;20045;-72
2021/10/16 11:15:35;;;;;;;13.73;9.40;;;;;;;9.61;61.07;100533.44;10384920;28;20057;-72
2021/10/16 11:20:37;;;;;;;14.05;9.43;;;;;;;9.68;60.57;100534.06;10385532;28;20057;-72
2021/10/16 11:25:53;;;;;;;16.85;10.35;;;;;;;9.57;60.55;100524.06;10383920;28;20626;-76
2021/10/16 11:30:56;;;;;;;17.75;9.73;;;;;;;9.31;60.75;100529.63;10384983;28;20045;-73
2021/10/16 11:36:00;;;;;;;14.38;8.38;;;;;;;9.26;60.54;100521.16;10384249;28;20060;-71
2021/10/16 11:41:03;;;;;;;12.35;9.00;;;;;;;9.26;60.79;100515.94;10384603;28;20057;-72
2021/10/16 11:46:16;;;;;;;14.93;9.18;;;;;;;9.51;60.51;100508.69;10383413;28;20059;-72
2021/10/16 11:51:18;;;;;;;14.23;10.50;;;;;;;9.17;60.77;100512.88;10384235;28;20413;-72
2021/10/16 11:56:20;;;;;;;19.27;11.65;;;;;;;9.12;60.96;100502.66;10383828;28;20049;-71
2021/10/16 12:01:22;;;;;;;18.33;10.77;;;;;;;9.08;61.19;100498.47;10384412;28;20065;-72
2021/10/16 12:06:29;;;;;;;17.35;10.32;;;;;;;9.46;60.35;100487.16;10383024;28;20049;-71
2021/10/16 12:11:32;;;;;;;16.05;9.52;;;;;;;9.66;59.86;100473.22;10384485;28;20060;-72
2021/10/16 12:16:46;;;;;;;16.35;9.98;;;;;;;9.76;60.27;100471.00;10383590;28;20199;-71
2021/10/16 12:21:54;;;;;;;18.27;10.45;;;;;;;10.02;60.04;100450.53;10383675;28;20056;-71
2021/10/16 12:27:01;;;;;;;16.25;10.52;;;;;;;10.01;59.57;100448.81;10382558;28;20080;-71
2021/10/16 12:32:11;;;;;;;17.35;9.60;;;;;;;9.94;60.65;100450.06;10382448;28;20243;-71
2021/10/16 12:37:13;;;;;;;12.52;8.80;;;;;;;10.31;59.98;100444.69;10383528;28;20053;-71
2021/10/16 12:42:21;;;;;;;15.88;9.40;;;;;;;10.37;59.00;100431.31;10383164;28;20045;-71
2021/10/16 12:47:23;;;;;;;14.13;8.65;;;;;;;10.25;59.87;100433.72;10383591;28;20046;-71
2021/10/16 12:52:31;;;;;;;15.65;8.60;;;;;;;10.38;59.74;100432.13;10381399;28;20056;-71
2021/10/16 12:57:32;;;;;;;12.77;8.50;;;;;;;10.55;60.15;100424.28;10383564;28;20050;-71
2021/10/16 13:02:38;;;;;;;11.93;9.20;;;;;;;10.70;59.88;100425.25;10389093;28;20063;-71
2021/10/16 13:07:40;;;;;;;14.23;8.98;;;;;;;10.71;59.72;100417.31;10390622;28;20118;-71
2021/10/16 13:12:44;;;;;;;17.38;8.77;;;;;;;10.68;59.68;100409.66;10389381;28;21084;-71
2021/10/16 13:17:45;;;;;;;16.52;6.78;;;;;;;10.75;59.80;100403.16;10389786;28;20063;-71
2021/10/16 13:22:47;;;;;;;14.45;6.45;;;;;;;10.99;58.91;100399.22;10386636;28;20588;-71
2021/10/16 13:27:49;;;;;;;14.23;6.05;;;;;;;11.19;58.89;100390.34;10385400;28;20045;-68
2021/10/16 13:32:51;;;;;;;14.50;6.40;;;;;;;11.32;58.29;100384.34;10386064;28;20887;-71
2021/10/16 13:37:53;;;;;;;11.57;5.38;;;;;;;11.43;58.30;100382.88;10386956;28;20063;-71
2021/10/16 13:42:57;;;;;;;13.13;5.45;;;;;;;11.47;57.72;100382.63;10386411;28;20477;-71
2021/10/16 13:47:59;;;;;;;13.52;5.90;;;;;;;11.47;57.52;100385.25;10386605;28;20060;-72
2021/10/16 13:53:02;;;;;;;17.25;5.85;;;;;;;11.57;57.18;100394.28;10385196;28;20046;-71
2021/10/16 13:58:03;;;;;;;13.48;5.10;;;;;;;11.70;57.25;100387.41;10387765;28;20061;-71
2021/10/16 14:03:05;;;;;;;9.50;4.80;;;;;;;11.79;57.13;100386.03;10385788;28;20053;-71
2021/10/16 14:08:11;;;;;;;11.43;4.70;;;;;;;12.04;56.30;100381.06;10387210;28;20045;-71
2021/10/16 14:13:13;;;;;;;12.65;4.20;;;;;;;12.05;54.36;100372.25;10385303;28;20045;-71
2021/10/16 14:18:15;;;;;;;15.80;4.25;;;;;;;11.93;53.65;100379.06;10385843;28;20052;-71
2021/10/16 14:23:16;;;;;;;14.90;4.25;;;;;;;12.04;54.08;100365.34;10384625;28;20515;-71
2021/10/16 14:28:19;;;;;;;11.48;4.60;;;;;;;12.20;54.44;100360.88;10386095;28;20052;-71
2021/10/16 14:33:22;;;;;;;10.80;4.07;;;;;;;12.36;54.20;100360.81;10385464;28;20088;-70
2021/10/16 14:38:24;;;;;;;9.90;4.13;;;;;;;12.41;53.24;100353.53;10384727;28;20053;-71
2021/10/16 14:43:26;;;;;;;15.52;4.72;;;;;;;12.47;52.18;100348.78;10385468;28;20096;-72
2021/10/16 14:48:28;;;;;;;12.23;4.50;;;;;;;12.52;53.85;100345.84;10386658;28;20057;-71
2021/10/16 14:53:30;;;;;;;12.63;4.15;;;;;;;12.45;51.71;100340.16;10382238;28;20049;-71
2021/10/16 14:58:31;;;;;;;10.65;4.10;;;;;;;12.41;51.33;100343.03;10384394;28;20076;-71
2021/10/16 15:03:33;;;;;;;13.45;3.67;;;;;;;12.50;50.64;100338.06;10383436;28;20472;-71
2021/10/16 15:08:35;;;;;;;11.77;4.40;;;;;;;12.53;53.29;100337.06;10385510;28;20052;-71
2021/10/16 15:13:37;;;;;;;11.05;3.70;;;;;;;12.50;53.94;100322.31;10385610;28;20067;-71
2021/10/16 15:18:39;;;;;;;10.98;3.40;;;;;;;12.46;53.67;100319.97;10385693;28;20053;-71
2021/10/16 15:23:41;;;;;;;10.45;3.30;;;;;;;12.41;54.09;100330.78;10384331;28;20076;-71
2021/10/16 15:28:43;;;;;;;10.65;3.15;;;;;;;12.26;54.65;100329.03;10385261;28;20139;-71
2021/10/16 15:33:44;;;;;;;14.50;4.78;;;;;;;12.00;55.58;100327.13;10385026;28;20050;-71
2021/10/16 15:38:46;;;;;;;15.13;6.18;;;;;;;11.58;56.88;100325.22;10385417;28;20408;-71
2021/10/16 15:43:48;;;;;;;13.48;4.00;;;;;;;11.17;56.97;100324.97;10384929;28;20484;-71
2021/10/16 15:48:51;;;;;;;12.60;3.83;;;;;;;10.86;57.90;100339.78;10381741;28;20051;-70
2021/10/16 15:53:53;;;;;;;13.48;3.55;;;;;;;10.53;58.81;100329.38;10383313;28;20056;-71
2021/10/16 15:58:55;;;;;;;11.70;2.92;;;;;;;10.25;59.68;100334.38;10384624;28;20061;-71
2021/10/16 16:03:56;;;;;;;9.23;3.03;;;;;;;9.99;60.22;100335.69;10377564;28;20083;-71
2021/10/16 16:08:58;;;;;;;9.05;3.20;;;;;;;9.75;60.77;100336.09;10380990;28;20601;-71
2021/10/16 16:14:00;;;;;;;17.77;4.20;;;;;;;9.57;61.00;100337.81;10378235;28;20776;-71
2021/10/16 16:19:02;;;;;;;14.05;3.78;;;;;;;9.41;61.53;100340.34;10380466;28;20196;-71
2021/10/16 16:24:04;;;;;;;11.98;4.20;;;;;;;9.29;61.95;100353.97;10383655;28;20557;-71
2021/10/16 16:29:07;;;;;;;14.00;4.57;;;;;;;9.12;62.31;100359.13;10381665;28;20098;-72
2021/10/16 16:34:08;;;;;;;13.25;4.57;;;;;;;9.05;62.67;100356.91;10385270;28;20049;-71
2021/10/16 16:39:10;;;;;;;16.00;4.43;;;;;;;9.03;62.99;100348.28;10392222;28;20050;-71
2021/10/16 16:44:12;;;;;;;13.80;4.15;;;;;;;9.03;63.08;100354.38;10391673;28;20619;-71
2021/10/16 16:49:13;;;;;;;12.25;4.03;;;;;;;9.06;63.23;100359.44;10390552;28;20050;-71
2021/10/16 16:54:15;;;;;;;12.50;4.60;;;;;;;9.09;63.14;100367.13;10389423;28;20417;-71
2021/10/16 16:59:17;;;;;;;11.50;4.55;;;;;;;9.15;63.14;100381.63;10390825;28;20054;-72
2021/10/16 17:04:19;;;;;;;12.70;4.47;;;;;;;9.17;63.12;100385.88;10389032;28;20140;-63
2021/10/16 17:09:21;;;;;;;14.45;4.30;;;;;;;9.21;63.24;100387.44;10388653;28;20057;-63
2021/10/16 17:14:22;;;;;;;13.63;4.60;;;;;;;9.23;63.12;100382.97;10387756;28;20422;-63
2021/10/16 17:19:24;;;;;;;13.75;4.50;;;;;;;9.24;63.16;100379.44;10390334;28;20061;-63
2021/10/16 17:24:26;;;;;;;9.52;3.67;;;;;;;9.27;63.26;100381.91;10387831;28;20050;-63
2021/10/16 17:29:44;;;;;;;12.32;3.83;;;;;;;9.31;63.36;100385.22;10388376;28;20717;-63
2021/10/16 17:34:46;;;;;;;12.10;3.83;;;;;;;9.34;63.12;100383.31;10388033;28;20057;-63
2021/10/16 17:39:49;;;;;;;11.32;4.05;;;;;;;9.36;63.08;100376.25;10388018;28;20067;-63
2021/10/16 17:44:51;;;;;;;15.88;5.07;;;;;;;9.35;63.11;100374.56;10386025;28;20060;-64
2021/10/16 17:49:56;;;;;;;14.38;5.28;;;;;;;9.35;63.08;100377.19;10387841;28;20049;-63
2021/10/16 17:54:58;;;;;;;15.70;4.85;;;;;;;9.32;63.21;100372.09;10387343;28;20049;-63
2021/10/16 18:00:00;;;;;;;14.90;4.40;;;;;;;9.32;63.29;100385.13;10380570;28;20077;-63
2021/10/16 18:05:03;;;;;;;13.00;4.78;;;;;;;9.25;63.06;100383.75;10387706;28;20042;-63
2021/10/16 18:10:05;;;;;;;10.10;4.10;;;;;;;9.15;63.27;100382.50;10387770;28;20041;-63
2021/10/16 18:15:07;;;;;;;15.65;3.97;;;;;;;9.14;63.63;100372.97;10387530;28;20049;-63
2021/10/16 18:20:09;;;;;;;10.38;4.13;;;;;;;9.18;63.62;100377.13;10386869;28;20052;-63
2021/10/16 18:25:11;;;;;;;11.80;5.72;;;;;;;9.09;63.42;100380.16;10387324;28;20053;-63
2021/10/16 18:30:13;;;;;;;15.30;6.05;;;;;;;8.91;63.82;100375.81;10385669;28;20766;-63
2021/10/16 18:35:15;;;;;;;15.75;6.40;;;;;;;8.76;64.33;100363.44;10386536;28;20049;-64
2021/10/16 18:40:18;;;;;;;11.02;4.47;;;;;;;8.75;64.54;100361.78;10386485;28;20060;-63
2021/10/16 18:45:20;;;;;;;11.52;4.80;;;;;;;8.83;64.55;100360.47;10386597;28;20148;-63
2021/10/16 18:50:22;;;;;;;13.48;5.32;;;;;;;8.70;64.82;100364.59;10385478;28;20568;-63
2021/10/16 18:55:24;;;;;;;14.95;4.82;;;;;;;8.71;64.89;100365.41;10385900;28;20045;-63
2021/10/16 19:00:25;;;;;;;15.93;4.78;;;;;;;8.69;64.84;100372.44;10385519;28;20064;-64
2021/10/16 19:05:27;;;;;;;15.85;4.90;;;;;;;8.60;65.30;100380.69;10384930;28;20659;-63
2021/10/16 19:10:29;;;;;;;14.50;4.85;;;;;;;8.72;65.09;100375.78;10384836;28;20837;-64
2021/10/16 19:15:32;;;;;;;13.48;6.57;;;;;;;8.84;64.87;100374.38;10384507;28;20521;-63
2021/10/16 19:20:33;;;;;;;14.95;6.55;;;;;;;8.73;64.79;100368.78;10385160;28;20055;-63
2021/10/16 19:25:35;;;;;;;13.55;5.47;;;;;;;8.75;65.21;100377.41;10385050;28;20055;-63
2021/10/16 19:30:37;;;;;;;11.30;5.35;;;;;;;8.82;65.01;100373.59;10384407;28;20068;-63
2021/10/16 19:35:39;;;;;;;14.27;5.70;;;;;;;8.71;64.98;100376.69;10381593;28;20414;-63
2021/10/16 19:40:41;;;;;;;12.20;5.32;;;;;;;8.62;65.20;100378.88;10383580;28;20073;-63
2021/10/16 19:45:43;;;;;;;15.55;5.63;;;;;;;8.69;65.32;100391.56;10384538;28;20123;-63
2021/10/16 19:50:45;;;;;;;12.30;5.75;;;;;;;8.83;65.08;100386.56;10383500;28;20497;-63
2021/10/16 19:55:47;;;;;;;12.48;5.65;;;;;;;8.81;65.15;100392.78;10383959;28;20164;-62
2021/10/16 20:00:49;;;;;;;11.85;4.65;;;;;;;8.68;65.24;100394.25;10382055;28;20053;-63
2021/10/16 20:05:51;;;;;;;14.27;4.43;;;;;;;8.79;65.35;100394.63;10383521;28;20068;-63
2021/10/16 20:10:53;;;;;;;14.23;6.25;;;;;;;8.88;65.17;100394.19;10390464;28;20049;-63
2021/10/16 20:15:56;;;;;;;16.77;8.15;;;;;;;8.90;65.06;100394.97;10390703;28;20136;-62
2021/10/16 20:20:58;;;;;;;15.90;7.10;;;;;;;8.84;64.82;100397.84;10390622;28;20049;-65
2021/10/16 20:26:02;;;;;;;11.23;5.68;;;;;;;8.74;65.51;100407.00;10390545;28;20045;-63
2021/10/16 20:31:04;;;;;;;13.55;6.13;;;;;;;8.75;65.13;100393.88;10390769;28;20135;-65
2021/10/16 20:36:06;;;;;;;11.57;5.55;;;;;;;8.55;65.84;100400.91;10390122;28;20690;-63
2021/10/16 20:41:08;;;;;;;19.63;6.20;;;;;;;8.73;65.78;100392.25;10388683;28;20365;-63
2021/10/16 20:46:10;;;;;;;14.32;6.00;;;;;;;8.87;65.51;100396.88;10389937;28;20045;-64
2021/10/16 20:51:12;;;;;;;16.83;6.63;;;;;;;8.94;65.33;100399.13;10389722;28;20042;-63
2021/10/16 20:56:13;;;;;;;12.93;6.57;;;;;;;9.02;65.19;100407.44;10388540;28;20176;-63
2021/10/16 21:01:16;;;;;;;13.35;6.68;;;;;;;9.07;65.05;100395.06;10388654;28;20088;-63
2021/10/16 21:06:18;;;;;;;20.75;9.38;;;;;;;9.07;64.98;100397.66;10389601;28;20049;-63
2021/10/16 21:11:20;;;;;;;18.35;8.30;;;;;;;8.85;65.21;100394.34;10389296;28;20064;-63
2021/10/16 21:16:22;;;;;;;14.93;6.93;;;;;;;8.89;65.41;100395.91;10388759;28;20065;-63
2021/10/16 21:21:23;;;;;;;20.45;7.65;;;;;;;8.84;65.15;100392.63;10387444;28;20402;-63
2021/10/16 21:26:25;;;;;;;13.27;7.22;;;;;;;8.65;65.75;100403.03;10388981;28;20052;-63
2021/10/16 21:31:27;;;;;;;16.23;7.10;;;;;;;8.76;65.64;100403.41;10389209;28;20053;-63
2021/10/16 21:36:29;;;;;;;14.13;8.40;;;;;;;8.74;65.35;100391.34;10388257;28;20053;-63
2021/10/16 21:41:32;;;;;;;17.27;8.10;;;;;;;8.81;65.31;100398.00;10387867;28;20085;-63
2021/10/16 21:46:37;;;;;;;16.38;8.15;;;;;;;8.82;65.41;100389.25;10386391;28;20053;-63
2021/10/16 21:51:39;;;;;;;15.43;8.48;;;;;;;8.80;64.94;100383.25;10386156;28;20128;-63
2021/10/16 21:56:45;;;;;;;15.48;7.57;;;;;;;8.65;65.39;100376.09;10388027;28;20049;-63
2021/10/16 22:01:47;;;;;;;13.63;6.90;;;;;;;8.45;65.99;100384.81;10387071;28;20142;-63
2021/10/16 22:06:49;;;;;;;18.98;7.90;;;;;;;8.49;66.17;100377.72;10386827;28;20592;-63
2021/10/16 22:11:50;;;;;;;16.60;7.18;;;;;;;8.49;65.93;100373.34;10386973;28;20045;-63
2021/10/16 22:16:52;;;;;;;17.02;6.93;;;;;;;8.57;66.06;100375.59;10386536;28;20064;-65
2021/10/16 22:21:54;;;;;;;13.30;6.35;;;;;;;8.61;65.93;100366.75;10385980;28;20055;-63
2021/10/16 22:26:56;;;;;;;14.15;6.05;;;;;;;8.52;66.00;100369.78;10385472;28;20059;-65
2021/10/16 22:31:57;;;;;;;14.82;6.65;;;;;;;8.32;66.70;100375.88;10385186;28;20055;-63
2021/10/16 22:36:59;;;;;;;15.80;6.53;;;;;;;8.40;66.54;100372.91;10384670;28;20049;-63
2021/10/16 22:42:01;;;;;;;16.13;7.45;;;;;;;8.49;66.39;100380.31;10385571;28;20119;-62
2021/10/16 22:47:03;;;;;;;14.02;6.70;;;;;;;8.57;66.16;100366.03;10385211;28;20052;-62
2021/10/16 22:52:05;;;;;;;20.60;6.95;;;;;;;8.46;66.36;100376.09;10384720;28;20569;-63
2021/10/16 22:57:06;;;;;;;14.95;6.82;;;;;;;8.47;66.11;100361.28;10383177;28;20506;-63
2021/10/16 23:02:08;;;;;;;16.52;6.40;;;;;;;8.40;66.37;100370.31;10385351;28;20071;-62
2021/10/16 23:07:10;;;;;;;12.68;5.97;;;;;;;8.42;66.72;100371.09;10385552;28;20064;-65